createdAt,value
2018-09-01T00:00:18.140Z,13.10
2018-09-01T00:02:46.670Z,12.90
2018-09-01T00:05:15.167Z,13.20
2018-09-01T00:07:43.572Z,13.20
2018-09-01T00:10:12.171Z,12.80
2018-09-01T00:12:40.595Z,11.70
2018-09-01T00:15:09.070Z,11.50
2018-09-01T00:17:37.506Z,11.20
2018-09-01T00:20:06.162Z,11.30
2018-09-01T00:22:34.672Z,11.00
2018-09-01T00:25:03.162Z,11.00
2018-09-01T00:27:31.582Z,11.20
2018-09-01T00:30:00.062Z,11.50
2018-09-01T00:32:28.516Z,11.10
2018-09-01T00:34:56.976Z,10.80
2018-09-01T00:37:30.761Z,10.90
2018-09-01T00:39:59.287Z,11.00
2018-09-01T00:42:27.767Z,10.80
2018-09-01T00:44:56.242Z,10.40
2018-09-01T00:47:24.850Z,11.00
2018-09-01T00:49:53.339Z,11.50
2018-09-01T00:52:21.798Z,11.90
2018-09-01T00:54:50.339Z,11.90
2018-09-01T00:57:18.815Z,12.40
2018-09-01T00:59:47.314Z,12.40
2018-09-01T01:02:15.820Z,12.20
2018-09-01T01:04:44.289Z,11.10
2018-09-01T01:07:14.244Z,10.50
2018-09-01T01:09:43.386Z,10.50
2018-09-01T01:12:11.922Z,11.00
2018-09-01T01:14:40.426Z,11.70
2018-09-01T01:17:12.157Z,12.30
2018-09-01T01:19:41.147Z,12.40
2018-09-01T01:22:09.635Z,11.80
2018-09-01T01:24:38.203Z,12.10
2018-09-01T01:27:06.635Z,12.00
2018-09-01T01:29:35.221Z,12.10
2018-09-01T01:32:03.678Z,12.30
2018-09-01T01:34:32.139Z,12.10
2018-09-01T01:37:00.638Z,12.10
2018-09-01T01:39:29.226Z,12.10
2018-09-01T01:41:57.747Z,11.80
2018-09-01T01:44:26.284Z,11.80
2018-09-01T01:46:54.880Z,12.10
2018-09-01T01:49:23.451Z,11.90
2018-09-01T01:51:51.945Z,11.00
2018-09-01T01:54:20.608Z,11.30
2018-09-01T01:56:49.074Z,11.10
2018-09-01T01:59:17.539Z,10.20
2018-09-01T02:01:46.027Z,10.50
2018-09-01T02:04:14.484Z,11.10
2018-09-01T02:06:42.886Z,11.10
2018-09-01T02:09:11.321Z,11.50
2018-09-01T02:11:39.773Z,10.40
2018-09-01T02:14:08.262Z,9.90
2018-09-01T02:16:36.763Z,9.60
2018-09-01T02:19:05.506Z,10.00
2018-09-01T02:21:34.008Z,10.60
2018-09-01T02:24:02.494Z,10.10
2018-09-01T02:26:31.081Z,10.80
2018-09-01T02:28:59.587Z,10.80
2018-09-01T02:31:28.451Z,9.80
2018-09-01T02:33:56.888Z,9.40
2018-09-01T02:36:25.429Z,10.00
2018-09-01T02:38:53.949Z,9.90
2018-09-01T02:41:22.422Z,9.70
2018-09-01T02:43:50.964Z,10.40
2018-09-01T02:46:19.706Z,10.60
2018-09-01T02:48:48.211Z,10.80
2018-09-01T02:51:16.596Z,10.90
2018-09-01T02:53:45.059Z,10.60
2018-09-01T02:56:13.554Z,10.10
2018-09-01T02:58:41.994Z,9.40
2018-09-01T03:01:15.603Z,9.20
2018-09-01T03:03:44.084Z,9.60
2018-09-01T03:06:12.606Z,9.80
2018-09-01T03:08:41.052Z,10.20
2018-09-01T03:11:09.619Z,10.70
2018-09-01T03:13:38.235Z,10.60
2018-09-01T03:16:06.707Z,10.50
2018-09-01T03:18:35.182Z,9.70
2018-09-01T03:21:03.687Z,9.10
2018-09-01T03:23:32.210Z,8.80
2018-09-01T03:26:00.692Z,9.70
2018-09-01T03:28:29.237Z,10.40
2018-09-01T03:30:57.837Z,10.90
2018-09-01T03:33:26.268Z,11.10
2018-09-01T03:35:54.927Z,11.00
2018-09-01T03:38:23.412Z,11.40
2018-09-01T03:40:51.937Z,11.50
2018-09-01T03:43:20.382Z,11.30
2018-09-01T03:45:48.852Z,10.60
2018-09-01T03:48:17.343Z,11.00
2018-09-01T03:50:45.922Z,10.10
2018-09-01T03:53:14.421Z,9.40
2018-09-01T03:55:42.878Z,10.20
2018-09-01T03:58:11.296Z,10.30
2018-09-01T04:00:39.728Z,9.90
2018-09-01T04:03:08.233Z,9.30
2018-09-01T04:05:36.704Z,9.30
2018-09-01T04:08:05.592Z,9.90
2018-09-01T04:10:34.062Z,10.50
2018-09-01T04:13:02.584Z,10.70
2018-09-01T04:15:31.088Z,10.70
2018-09-01T04:17:59.507Z,9.80
2018-09-01T04:20:28.142Z,9.20
2018-09-01T04:22:56.611Z,9.40
2018-09-01T04:25:25.183Z,9.60
2018-09-01T04:27:53.724Z,10.00
2018-09-01T04:30:22.156Z,10.30
2018-09-01T04:32:50.542Z,10.60
2018-09-01T04:35:19.041Z,10.40
2018-09-01T04:37:47.590Z,9.20
2018-09-01T04:40:16.131Z,9.10
2018-09-01T04:42:44.622Z,9.00
2018-09-01T04:45:13.090Z,9.60
2018-09-01T04:47:41.592Z,10.00
2018-09-01T04:50:10.204Z,10.70
2018-09-01T04:52:38.865Z,10.70
2018-09-01T04:55:07.464Z,9.50
2018-09-01T04:57:36.110Z,8.90
2018-09-01T05:00:04.802Z,8.30
2018-09-01T05:02:33.272Z,8.00
2018-09-01T05:05:01.881Z,8.40
2018-09-01T05:07:30.348Z,9.00
2018-09-01T05:09:58.801Z,9.70
2018-09-01T05:12:27.347Z,10.30
2018-09-01T05:14:55.775Z,10.70
2018-09-01T05:17:24.181Z,10.60
2018-09-01T05:19:52.669Z,9.90
2018-09-01T05:22:21.175Z,10.20
2018-09-01T05:24:49.602Z,9.70
2018-09-01T05:27:18.119Z,9.70
2018-09-01T05:29:46.703Z,10.10
2018-09-01T05:32:15.300Z,10.20
2018-09-01T05:34:43.811Z,10.00
2018-09-01T05:37:12.399Z,9.60
2018-09-01T05:39:40.913Z,9.00
2018-09-01T05:42:09.379Z,9.80
2018-09-01T05:44:37.924Z,10.40
2018-09-01T05:47:06.498Z,10.40
2018-09-01T05:49:35.062Z,10.70
2018-09-01T05:52:03.563Z,10.90
2018-09-01T05:54:32.143Z,10.80
2018-09-01T05:57:00.594Z,9.90
2018-09-01T05:59:29.101Z,9.90
2018-09-01T06:01:57.658Z,9.60
2018-09-01T06:04:26.082Z,8.90
2018-09-01T06:06:54.605Z,8.90
2018-09-01T06:09:23.147Z,8.80
2018-09-01T06:11:51.706Z,8.40
2018-09-01T06:14:20.210Z,8.60
2018-09-01T06:16:48.692Z,9.50
2018-09-01T06:19:17.315Z,10.20
2018-09-01T06:21:45.778Z,10.60
2018-09-01T06:24:14.213Z,10.70
2018-09-01T06:26:42.689Z,10.20
2018-09-01T06:29:14.385Z,10.60
2018-09-01T06:31:45.982Z,10.90
2018-09-01T06:34:14.440Z,11.10
2018-09-01T06:36:42.910Z,11.50
2018-09-01T06:39:11.334Z,11.70
2018-09-01T06:41:39.958Z,11.90
2018-09-01T06:44:08.406Z,11.90
2018-09-01T06:46:36.855Z,12.10
2018-09-01T06:49:05.473Z,13.00
2018-09-01T06:51:34.239Z,13.80
2018-09-01T06:54:02.716Z,14.20
2018-09-01T06:56:31.274Z,14.80
2018-09-01T06:58:59.941Z,14.80
2018-09-01T07:01:28.478Z,15.00
2018-09-01T07:03:56.987Z,15.30
2018-09-01T07:06:25.417Z,15.30
2018-09-01T07:08:54.044Z,15.00
2018-09-01T07:11:22.554Z,15.50
2018-09-01T07:13:51.066Z,15.40
2018-09-01T07:16:19.539Z,14.80
2018-09-01T07:18:48.069Z,14.80
2018-09-01T07:21:16.623Z,14.70
2018-09-01T07:23:45.125Z,14.80
2018-09-01T07:26:13.586Z,14.00
2018-09-01T07:28:42.066Z,13.90
2018-09-01T07:31:10.932Z,14.00
2018-09-01T07:33:39.232Z,14.60
2018-09-01T07:36:07.682Z,15.00
2018-09-01T07:38:36.225Z,14.90
2018-09-01T07:41:04.826Z,15.30
2018-09-01T07:43:33.362Z,15.50
2018-09-01T07:46:01.950Z,15.70
2018-09-01T07:48:30.451Z,15.80
2018-09-01T07:50:58.990Z,16.30
2018-09-01T07:53:27.521Z,17.00
2018-09-01T07:55:56.175Z,18.00
2018-09-01T07:58:24.857Z,18.30
2018-09-01T08:00:53.426Z,19.00
2018-09-01T08:03:21.960Z,19.60
2018-09-01T08:05:50.502Z,18.30
2018-09-01T08:08:18.957Z,19.30
2018-09-01T08:10:47.486Z,18.90
2018-09-01T08:13:16.059Z,18.50
2018-09-01T08:15:44.583Z,18.90
2018-09-01T08:18:13.083Z,18.30
2018-09-01T08:20:41.647Z,19.80
2018-09-01T08:23:10.320Z,20.20
2018-09-01T08:25:38.894Z,20.20
2018-09-01T08:28:07.497Z,20.10
2018-09-01T08:30:35.972Z,20.00
2018-09-01T08:33:04.408Z,19.90
2018-09-01T08:35:32.794Z,20.60
2018-09-01T08:38:01.266Z,19.90
2018-09-01T08:40:29.755Z,19.80
2018-09-01T08:42:58.255Z,20.50
2018-09-01T08:45:26.811Z,21.80
2018-09-01T08:47:55.210Z,21.30
2018-09-01T08:50:23.658Z,20.50
2018-09-01T08:52:52.010Z,20.80
2018-09-01T08:55:20.514Z,20.80
2018-09-01T08:57:48.967Z,20.50
2018-09-01T09:00:17.471Z,20.10
2018-09-01T09:02:46.112Z,20.60
2018-09-01T09:05:14.639Z,20.50
2018-09-01T09:07:43.203Z,20.60
2018-09-01T09:10:11.746Z,21.00
2018-09-01T09:12:40.102Z,20.20
2018-09-01T09:15:08.630Z,20.60
2018-09-01T09:17:37.302Z,20.30
2018-09-01T09:20:06.201Z,20.50
2018-09-01T09:22:35.154Z,20.90
2018-09-01T09:25:03.566Z,21.50
2018-09-01T09:27:33.223Z,21.10
2018-09-01T09:30:01.695Z,20.70
2018-09-01T09:32:30.232Z,20.80
2018-09-01T09:34:58.630Z,20.80
2018-09-01T09:37:27.060Z,20.80
2018-09-01T09:39:55.684Z,20.90
2018-09-01T09:42:24.022Z,21.40
2018-09-01T09:44:52.813Z,22.30
2018-09-01T09:47:21.318Z,21.70
2018-09-01T09:49:49.829Z,21.40
2018-09-01T09:52:18.256Z,21.80
2018-09-01T09:54:46.807Z,21.50
2018-09-01T09:57:15.275Z,21.50
2018-09-01T09:59:43.848Z,22.10
2018-09-01T10:02:12.234Z,22.60
2018-09-01T10:04:40.733Z,22.90
2018-09-01T10:07:09.270Z,22.00
2018-09-01T10:09:37.854Z,21.90
2018-09-01T10:12:06.307Z,21.90
2018-09-01T10:14:34.946Z,21.60
2018-09-01T10:17:03.533Z,21.60
2018-09-01T10:19:32.014Z,22.40
2018-09-01T10:22:00.580Z,21.30
2018-09-01T10:24:29.050Z,22.50
2018-09-01T10:26:57.588Z,22.10
2018-09-01T10:29:26.036Z,22.80
2018-09-01T10:31:54.486Z,22.10
2018-09-01T10:34:23.012Z,22.40
2018-09-01T10:36:51.573Z,22.20
2018-09-01T10:39:20.050Z,21.80
2018-09-01T10:41:48.509Z,22.70
2018-09-01T10:44:16.909Z,22.60
2018-09-01T10:46:45.328Z,22.00
2018-09-01T10:49:13.795Z,21.30
2018-09-01T10:51:42.255Z,20.70
2018-09-01T10:54:10.856Z,20.80
2018-09-01T10:56:39.334Z,21.10
2018-09-01T10:59:07.778Z,21.50
2018-09-01T11:01:36.086Z,21.40
2018-09-01T11:04:04.608Z,20.60
2018-09-01T11:06:39.647Z,20.30
2018-09-01T11:09:09.310Z,19.70
2018-09-01T11:11:37.831Z,19.90
2018-09-01T11:14:06.795Z,19.80
2018-09-01T11:16:35.449Z,19.80
2018-09-01T11:19:04.038Z,19.90
2018-09-01T11:21:32.574Z,20.90
2018-09-01T11:24:01.185Z,23.70
2018-09-01T11:26:29.666Z,25.40
2018-09-01T11:28:58.241Z,24.60
2018-09-01T11:31:27.704Z,21.90
2018-09-01T11:33:56.275Z,21.10
2018-09-01T11:36:24.764Z,20.80
2018-09-01T11:38:53.234Z,21.50
2018-09-01T11:41:21.733Z,21.60
2018-09-01T11:43:50.177Z,21.40
2018-09-01T11:46:18.638Z,21.50
2018-09-01T11:48:47.134Z,21.70
2018-09-01T11:51:15.579Z,22.10
2018-09-01T11:53:43.999Z,21.50
2018-09-01T11:56:12.507Z,23.40
2018-09-01T11:58:41.057Z,23.90
2018-09-01T12:01:09.465Z,24.10
2018-09-01T12:03:38.174Z,23.30
2018-09-01T12:06:06.800Z,23.30
2018-09-01T12:08:35.395Z,25.80
2018-09-01T12:11:04.007Z,25.50
2018-09-01T12:13:32.478Z,23.70
2018-09-01T12:16:00.973Z,24.30
2018-09-01T12:18:29.354Z,25.20
2018-09-01T12:20:57.827Z,23.70
2018-09-01T12:23:26.393Z,23.60
2018-09-01T12:25:55.015Z,24.90
2018-09-01T12:28:24.482Z,25.80
2018-09-01T12:30:52.859Z,27.10
2018-09-01T12:33:21.328Z,27.20
2018-09-01T12:35:50.010Z,26.30
2018-09-01T12:38:18.412Z,24.70
2018-09-01T12:40:46.814Z,24.60
2018-09-01T12:43:15.315Z,23.60
2018-09-01T12:45:43.766Z,23.00
2018-09-01T12:48:12.249Z,21.90
2018-09-01T12:50:40.704Z,22.80
2018-09-01T12:53:09.182Z,24.00
2018-09-01T12:55:37.662Z,24.40
2018-09-01T12:58:06.094Z,25.20
2018-09-01T13:00:34.520Z,24.20
2018-09-01T13:03:02.945Z,22.70
2018-09-01T13:05:31.387Z,23.40
2018-09-01T13:07:59.905Z,24.30
2018-09-01T13:10:28.405Z,24.10
2018-09-01T13:12:56.903Z,23.40
2018-09-01T13:15:25.338Z,23.10
2018-09-01T13:17:53.774Z,22.30
2018-09-01T13:20:22.124Z,21.40
2018-09-01T13:22:50.490Z,21.60
2018-09-01T13:25:18.917Z,22.20
2018-09-01T13:27:47.397Z,22.10
2018-09-01T13:30:15.931Z,21.90
2018-09-01T13:32:44.391Z,22.50
2018-09-01T13:35:12.842Z,22.20
2018-09-01T13:37:41.363Z,21.60
2018-09-01T13:40:09.929Z,21.10
2018-09-01T13:42:38.420Z,20.80
2018-09-01T13:45:06.975Z,21.60
2018-09-01T13:47:35.442Z,22.80
2018-09-01T13:50:03.909Z,22.90
2018-09-01T13:52:32.304Z,23.00
2018-09-01T13:55:00.715Z,22.10
2018-09-01T13:57:29.473Z,22.00
2018-09-01T13:59:57.775Z,22.00
2018-09-01T14:02:26.179Z,22.00
2018-09-01T14:04:54.595Z,22.00
2018-09-01T14:07:23.084Z,22.00
2018-09-01T14:09:51.482Z,21.80
2018-09-01T14:12:19.970Z,21.90
2018-09-01T14:14:48.695Z,22.30
2018-09-01T14:17:17.023Z,23.00
2018-09-01T14:19:45.502Z,22.60
2018-09-01T14:22:14.058Z,22.40
2018-09-01T14:24:42.516Z,22.50
2018-09-01T14:27:11.044Z,21.70
2018-09-01T14:29:39.457Z,21.90
2018-09-01T14:32:07.895Z,21.80
2018-09-01T14:34:36.432Z,21.50
2018-09-01T14:37:05.479Z,21.60
2018-09-01T14:39:33.940Z,21.60
2018-09-01T14:42:02.395Z,21.70
2018-09-01T14:44:30.920Z,22.10
2018-09-01T14:46:59.483Z,22.50
2018-09-01T14:49:27.990Z,22.40
2018-09-01T14:51:56.430Z,22.50
2018-09-01T14:54:24.940Z,21.90
2018-09-01T14:56:53.384Z,22.30
2018-09-01T14:59:21.824Z,22.00
2018-09-01T15:01:50.255Z,22.50
2018-09-01T15:04:18.748Z,23.10
2018-09-01T15:06:47.223Z,22.30
2018-09-01T15:09:15.722Z,22.60
2018-09-01T15:11:44.230Z,21.80
2018-09-01T15:14:13.414Z,22.00
2018-09-01T15:16:41.899Z,21.30
2018-09-01T15:19:10.845Z,20.90
2018-09-01T15:21:39.290Z,20.80
2018-09-01T15:24:08.183Z,20.90
2018-09-01T15:26:36.671Z,21.10
2018-09-01T15:29:05.232Z,21.30
2018-09-01T15:31:33.839Z,21.20
2018-09-01T15:34:02.404Z,21.00
2018-09-01T15:36:30.839Z,21.50
2018-09-01T15:38:59.372Z,21.50
2018-09-01T15:41:27.708Z,21.60
2018-09-01T15:43:56.297Z,21.60
2018-09-01T15:46:24.754Z,21.00
2018-09-01T15:48:53.274Z,20.90
2018-09-01T15:51:21.715Z,20.80
2018-09-01T15:53:50.187Z,20.60
2018-09-01T15:56:18.752Z,20.60
2018-09-01T15:58:47.385Z,20.40
2018-09-01T16:01:15.957Z,20.50
2018-09-01T16:03:44.478Z,19.90
2018-09-01T16:06:12.787Z,19.80
2018-09-01T16:08:41.255Z,19.90
2018-09-01T16:11:09.806Z,20.30
2018-09-01T16:13:38.353Z,20.10
2018-09-01T16:16:06.983Z,20.40
2018-09-01T16:18:35.524Z,20.60
2018-09-01T16:21:04.010Z,20.40
2018-09-01T16:23:32.551Z,20.30
2018-09-01T16:26:01.004Z,20.30
2018-09-01T16:28:29.512Z,20.60
2018-09-01T16:30:58.093Z,20.50
2018-09-01T16:33:26.641Z,20.10
2018-09-01T16:35:55.149Z,20.10
2018-09-01T16:38:23.669Z,20.00
2018-09-01T16:40:52.123Z,19.80
2018-09-01T16:43:20.694Z,19.80
2018-09-01T16:45:49.245Z,19.70
2018-09-01T16:48:17.650Z,19.80
2018-09-01T16:50:46.139Z,19.50
2018-09-01T16:53:14.662Z,19.70
2018-09-01T16:55:43.190Z,19.80
2018-09-01T16:58:11.824Z,19.90
2018-09-01T17:00:40.373Z,20.10
2018-09-01T17:03:08.740Z,19.80
2018-09-01T17:05:37.209Z,19.80
2018-09-01T17:08:05.707Z,19.80
2018-09-01T17:10:34.199Z,19.90
2018-09-01T17:13:02.662Z,19.70
2018-09-01T17:15:31.070Z,19.80
2018-09-01T17:17:59.642Z,19.70
2018-09-01T17:20:28.135Z,19.50
2018-09-01T17:22:56.557Z,19.50
2018-09-01T17:25:24.931Z,19.40
2018-09-01T17:27:53.511Z,19.00
2018-09-01T17:30:21.929Z,19.20
2018-09-01T17:32:50.384Z,19.30
2018-09-01T17:35:18.832Z,19.30
2018-09-01T17:37:47.313Z,19.00
2018-09-01T17:40:15.731Z,18.90
2018-09-01T17:42:44.146Z,19.00
2018-09-01T17:45:12.613Z,19.00
2018-09-01T17:47:41.175Z,19.00
2018-09-01T17:50:09.749Z,18.90
2018-09-01T17:52:38.325Z,19.10
2018-09-01T17:55:06.910Z,19.10
2018-09-01T17:57:35.405Z,19.00
2018-09-01T18:00:04.023Z,18.60
2018-09-01T18:02:32.470Z,18.60
2018-09-01T18:05:00.930Z,18.70
2018-09-01T18:07:29.500Z,18.70
2018-09-01T18:09:57.978Z,18.60
2018-09-01T18:12:26.391Z,18.20
2018-09-01T18:14:54.920Z,17.50
2018-09-01T18:17:23.376Z,17.50
2018-09-01T18:19:52.010Z,17.80
2018-09-01T18:22:20.530Z,18.00
2018-09-01T18:24:48.982Z,18.00
2018-09-01T18:27:17.474Z,18.00
2018-09-01T18:29:45.951Z,17.80
2018-09-01T18:32:14.570Z,17.70
2018-09-01T18:34:43.102Z,17.30
2018-09-01T18:37:11.621Z,17.50
2018-09-01T18:39:40.059Z,17.50
2018-09-01T18:42:08.519Z,17.50
2018-09-01T18:44:37.053Z,17.60
2018-09-01T18:47:05.721Z,17.50
2018-09-01T18:49:34.196Z,17.60
2018-09-01T18:52:02.587Z,17.60
2018-09-01T18:54:31.094Z,17.50
2018-09-01T18:56:59.547Z,17.50
2018-09-01T18:59:28.072Z,17.60
2018-09-01T19:01:56.515Z,17.50
2018-09-01T19:04:24.916Z,17.30
2018-09-01T19:06:53.362Z,17.20
2018-09-01T19:09:21.854Z,17.10
2018-09-01T19:11:50.256Z,16.90
2018-09-01T19:14:18.693Z,16.50
2018-09-01T19:16:47.234Z,16.60
2018-09-01T19:19:15.736Z,16.70
2018-09-01T19:21:44.219Z,16.50
2018-09-01T19:24:12.656Z,16.10
2018-09-01T19:26:40.960Z,15.60
2018-09-01T19:29:09.410Z,15.20
2018-09-01T19:31:37.786Z,15.20
2018-09-01T19:34:06.342Z,15.50
2018-09-01T19:36:34.834Z,15.10
2018-09-01T19:39:04.162Z,15.00
2018-09-01T19:41:32.555Z,14.80
2018-09-01T19:44:01.007Z,14.70
2018-09-01T19:46:29.455Z,15.20
2018-09-01T19:48:57.997Z,15.00
2018-09-01T19:51:26.556Z,14.90
2018-09-01T19:53:55.043Z,14.50
2018-09-01T19:56:23.425Z,14.60
2018-09-01T19:58:51.889Z,14.60
2018-09-01T20:01:20.304Z,14.40
2018-09-01T20:03:48.703Z,14.00
2018-09-01T20:06:17.118Z,13.60
2018-09-01T20:08:45.591Z,13.90
2018-09-01T20:11:14.016Z,13.90
2018-09-01T20:13:42.566Z,14.20
2018-09-01T20:16:11.010Z,14.00
2018-09-01T20:18:39.442Z,14.20
2018-09-01T20:21:07.939Z,14.50
2018-09-01T20:23:36.416Z,14.70
2018-09-01T20:26:05.086Z,14.20
2018-09-01T20:28:33.481Z,14.50
2018-09-01T20:31:02.026Z,13.90
2018-09-01T20:33:30.483Z,14.00
2018-09-01T20:35:59.490Z,14.00
2018-09-01T20:38:28.863Z,13.60
2018-09-01T20:40:57.226Z,13.50
2018-09-01T20:43:26.119Z,12.80
2018-09-01T20:45:54.574Z,13.40
2018-09-01T20:48:22.985Z,14.00
2018-09-01T20:50:51.495Z,14.10
2018-09-01T20:53:19.910Z,13.30
2018-09-01T20:55:48.407Z,13.20
2018-09-01T20:58:16.832Z,12.80
2018-09-01T21:00:45.368Z,13.00
2018-09-01T21:03:13.976Z,13.00
2018-09-01T21:05:42.418Z,13.30
2018-09-01T21:08:10.818Z,13.30
2018-09-01T21:10:39.879Z,12.50
2018-09-01T21:13:08.353Z,12.90
2018-09-01T21:15:36.778Z,13.30
2018-09-01T21:18:07.652Z,13.40
2018-09-01T21:20:36.187Z,13.10
2018-09-01T21:23:04.582Z,13.20
2018-09-01T21:25:33.144Z,13.10
2018-09-01T21:28:01.552Z,13.10
2018-09-01T21:30:29.974Z,13.10
2018-09-01T21:32:58.459Z,12.30
2018-09-01T21:35:26.927Z,13.00
2018-09-01T21:37:55.332Z,12.40
2018-09-01T21:40:23.747Z,13.00
2018-09-01T21:42:52.175Z,12.90
2018-09-01T21:45:20.658Z,12.80
2018-09-01T21:47:49.115Z,12.60
2018-09-01T21:50:17.684Z,12.40
2018-09-01T21:52:46.062Z,11.90
2018-09-01T21:55:14.616Z,11.50
2018-09-01T21:57:43.090Z,11.60
2018-09-01T22:00:11.528Z,12.40
2018-09-01T22:02:40.027Z,11.90
2018-09-01T22:05:13.789Z,11.50
2018-09-01T22:07:42.348Z,11.70
2018-09-01T22:10:10.851Z,12.10
2018-09-01T22:12:39.307Z,11.80
2018-09-01T22:15:08.310Z,11.90
2018-09-01T22:17:36.883Z,12.70
2018-09-01T22:20:05.342Z,11.80
2018-09-01T22:22:34.008Z,11.10
2018-09-01T22:25:02.541Z,11.90
2018-09-01T22:27:31.030Z,12.20
2018-09-01T22:29:59.478Z,11.70
2018-09-01T22:32:28.017Z,12.10
2018-09-01T22:34:56.474Z,12.10
2018-09-01T22:37:24.958Z,11.60
2018-09-01T22:39:53.356Z,11.20
2018-09-01T22:42:21.954Z,11.10
2018-09-01T22:44:50.492Z,11.70
2018-09-01T22:47:22.425Z,11.90
2018-09-01T22:49:50.990Z,12.30
2018-09-01T22:52:19.419Z,11.80
2018-09-01T22:54:47.850Z,10.80
2018-09-01T22:57:16.283Z,10.70
2018-09-01T22:59:44.905Z,10.30
2018-09-01T23:02:13.405Z,10.20
2018-09-01T23:04:41.941Z,11.20
2018-09-01T23:07:10.521Z,11.50
2018-09-01T23:09:39.056Z,11.00
2018-09-01T23:12:07.656Z,11.00
2018-09-01T23:14:36.096Z,11.70
2018-09-01T23:17:04.583Z,11.60
2018-09-01T23:19:33.610Z,11.60
2018-09-01T23:22:02.154Z,10.70
2018-09-01T23:24:30.499Z,10.50
2018-09-01T23:26:58.960Z,11.30
2018-09-01T23:29:27.398Z,10.60
2018-09-01T23:31:55.879Z,11.20
2018-09-01T23:34:24.405Z,11.50
2018-09-01T23:36:52.944Z,10.60
2018-09-01T23:39:21.567Z,10.10
2018-09-01T23:41:49.968Z,9.90
2018-09-01T23:44:18.515Z,10.40
2018-09-01T23:46:47.070Z,10.60
2018-09-01T23:49:15.484Z,10.70
2018-09-01T23:51:44.039Z,11.00
2018-09-01T23:54:12.459Z,11.20
2018-09-01T23:56:40.907Z,11.40
2018-09-01T23:59:09.272Z,11.90
